• Join FlightAware (Why Join?)
  • Login
  • US Flag 
 
10:44PM EST


 

Airport Tracker/Info


-or-


 

Live Flight TrackerFlight Track Log ✈ JZA7927 ✈ 26-May-2013 ✈ KBWI - CYYZ

Flight Track Log - Related Links

Times and Time Zones

All times are in EDT time to prevent confusion due to time zone crossing. See the JZA7927 flight status page for this flight to view local times or setup timezone preferences in your user account.

Time Position Orientation Groundspeed Altitude Reporting Facility
EDT Latitude Longitude Course Direction KTS MPH feet Rate Location/Type
06:14AM 39.2167 -76.7000 322° Northwest 117 135 2,300  Level Potomac TRACON
06:15AM 39.2500 -76.7167 339° North 110 127 3,700 900 Climbing Potomac TRACON
06:16AM 39.2500 -76.7500 270° West 154 177 4,100 780 Climbing Potomac TRACON
06:17AM 39.2000 -77.0525 270° West  Level FlightAware Approximate
06:17AM 39.2667 -76.8167 288° West 162 186 5,200  Level Potomac TRACON
06:18AM 39.2000 -77.1312 270° West  Level FlightAware Approximate
06:18AM 39.2833 -76.8667 293° West 165 190 6,100  Level Potomac TRACON
06:19AM 39.2418 -77.1751 322° Northwest  Level FlightAware Approximate
06:20AM 39.3033 -77.0050 281° West 166 191 8,300  Level Washington Center
06:21AM 39.3214 -77.0617 292° West 166 191 9,200 900 Climbing Washington Center
06:22AM 39.3583 -77.1000 321° Northwest 166 191 10,100 900 Climbing Washington Center
06:23AM 39.3933 -77.1411 318° Northwest 166 191 11,100 840 Climbing Washington Center
06:24AM 39.4261 -77.1819 316° Northwest 166 191 11,800 660 Climbing Washington Center
06:25AM 39.4589 -77.2258 314° West 166 191 12,500 660 Climbing Washington Center
06:27AM 39.5336 -77.3178 317° Northwest 172 198 14,000 600 Climbing New York Center
06:28AM 39.5686 -77.3617 316° Northwest 167 192 14,500 600 Climbing New York Center
06:29AM 39.6081 -77.4003 323° Northwest 167 192 15,200 600 Climbing New York Center
06:30AM 39.6531 -77.4153 346° North 167 192 15,800 360 Climbing New York Center
06:31AM 39.7064 -77.4339 345° North 175 201 16,000 60 Climbing New York Center
06:32AM 39.7636 -77.4528 346° North 189 217 16,000  Level New York Center
06:33AM 39.8208 -77.4744 344° North 214 246 16,000  Level New York Center
06:34AM 39.8781 -77.4933 346° North 219 252 16,000  Level New York Center
06:35AM 39.9394 -77.5156 344° North 219 252 16,000  Level New York Center
06:36AM 39.9967 -77.5375 344° North 219 252 16,000  Level New York Center
06:37AM 40.0558 -77.5567 346° North 219 252 16,000  Level New York Center
06:38AM 40.1131 -77.5786 344° North 219 252 16,000  Level New York Center
06:39AM 40.1722 -77.6006 344° North 219 252 16,000  Level New York Center
06:40AM 40.2314 -77.6228 344° North 219 252 16,000  Level New York Center
06:42AM 40.3172 -77.6558 344° North 224 258 16,100  Climbing Cleveland Center
06:43AM 40.3761 -77.6778 344° North 224 258 16,100  Level Cleveland Center
06:44AM 40.4331 -77.6969 346° North 224 258 16,100  Level Cleveland Center
06:45AM 40.4983 -77.7217 344° North 219 252 16,100  Level Cleveland Center
06:46AM 40.5572 -77.7436 344° North 219 252 16,100  Level Cleveland Center
06:47AM 40.6139 -77.7631 345° North 219 252 16,100  Level Cleveland Center
06:48AM 40.6708 -77.7853 344° North 219 252 16,100  Level Cleveland Center
06:49AM 40.7297 -77.8047 346° North 219 252 16,100  Level Cleveland Center
06:50AM 40.7867 -77.8297 342° North 219 252 16,100  Level Cleveland Center
06:51AM 40.8475 -77.8519 345° North 214 246 16,100  Level Cleveland Center
06:52AM 40.9044 -77.8714 346° North 214 246 16,100  Level Cleveland Center
06:53AM 40.9611 -77.8939 343° North 214 246 16,100 -60 Level Cleveland Center
06:54AM 41.0222 -77.9161 345° North 214 246 16,000 -60 Descending Cleveland Center
06:55AM 41.0811 -77.9386 344° North 214 246 16,000  Level Cleveland Center
06:56AM 41.1397 -77.9583 346° North 214 246 16,000  Level Cleveland Center
06:57AM 41.1967 -77.9808 343° North 214 246 16,000  Level Cleveland Center
06:58AM 41.2556 -78.0033 344° North 214 246 16,000  Level Cleveland Center
06:59AM 41.3164 -78.0231 346° North 214 246 16,000  Level Cleveland Center
07:00AM 41.3711 -78.0458 343° North 219 252 16,000  Level Cleveland Center
07:01AM 41.4300 -78.0683 344° North 219 252 16,000  Level Cleveland Center
07:02AM 41.4911 -78.0911 344° North 224 258 16,000  Level Cleveland Center
07:03AM 41.5539 -78.1136 345° North 224 258 16,000  Level Cleveland Center
07:04AM 41.6128 -78.1364 344° North 224 258 16,000  Level Cleveland Center
07:05AM 41.6739 -78.1589 345° North 224 258 16,000  Level Cleveland Center
07:06AM 41.7347 -78.1844 343° North 224 258 16,000  Level Cleveland Center
07:07AM 41.7978 -78.2044 347° North 224 258 16,000  Level Cleveland Center
07:08AM 41.8608 -78.2300 343° North 224 258 16,000  Level Cleveland Center
07:09AM 41.9158 -78.2672 333° Northwest 224 258 16,000  Level Cleveland Center
07:10AM 41.9686 -78.3069 331° Northwest 219 252 16,100  Climbing Cleveland Center
07:11AM 42.0258 -78.3525 329° Northwest 225 259 16,000 -60 Descending Cleveland Center
07:12AM 42.0789 -78.3956 329° Northwest 230 265 16,000  Level Cleveland Center
07:13AM 42.1339 -78.4356 332° Northwest 230 265 16,000  Level Cleveland Center
07:14AM 42.1950 -78.4811 331° Northwest 235 270 16,000  Level Cleveland Center
07:15AM 42.2500 -78.5242 330° Northwest 230 265 16,000  Level Cleveland Center
07:16AM 42.3050 -78.5675 330° Northwest 230 265 16,000  Level Cleveland Center
07:17AM 42.3578 -78.6106 329° Northwest 230 265 16,000  Level Cleveland Center
07:18AM 42.4128 -78.6511 331° Northwest 230 265 16,000  Level Cleveland Center
07:19AM 42.4656 -78.6917 330° Northwest 230 265 16,000  Level Cleveland Center
07:20AM 42.5183 -78.7325 330° Northwest 230 265 16,000  Level Cleveland Center
07:21AM 42.5753 -78.7758 331° Northwest 230 265 16,000  Level Cleveland Center
07:22AM 42.6258 -78.8167 329° Northwest 230 265 16,000  Level Cleveland Center
07:23AM 42.6786 -78.8578 330° Northwest 225 259 16,000  Level Cleveland Center
07:24AM 42.7314 -78.8986 330° Northwest 225 259 16,000 -120 Level Cleveland Center
07:25AM 42.7842 -78.9397 330° Northwest 225 259 15,800 -300 Descending Cleveland Center
07:26AM 42.8325 -78.9781 330° Northwest 225 259 15,400 -480 Descending Cleveland Center
07:27AM 42.8894 -79.0219 331° Northwest 225 259 14,900 -540 Descending Cleveland Center
07:27AM 42.9167 -79.0167 North 240 276 14,600 -540 Descending Toronto Center
07:28AM 42.9667 -79.0833 316° Northwest 230 265 14,100 -540 Descending Toronto Center
07:29AM 43.0167 -79.1167 334° Northwest 230 265 13,600 -540 Descending Toronto Center
07:30AM 43.0833 -79.1500 340° North 230 265 13,100 -600 Descending Toronto Center
07:31AM 43.1333 -79.2000 324° Northwest 230 265 12,500 -600 Descending Toronto Center
07:32AM 43.1833 -79.2500 324° Northwest 240 276 11,900 -720 Descending Toronto Center
07:33AM 43.2500 -79.2833 340° North 240 276 11,100 -780 Descending Toronto Center
07:34AM 43.3000 -79.3333 324° Northwest 240 276 10,400 -900 Descending Toronto Center
07:35AM 43.3667 -79.3500 350° North 240 276 9,400 -960 Descending Toronto Center
07:36AM 43.4333 -79.4000 331° Northwest 240 276 8,500 -780 Descending Toronto Center
07:37AM 43.5000 -79.4333 340° North 230 265 7,900 -660 Descending Toronto Center
07:38AM 43.5167 -79.5167 285° West 240 276 7,200 -1,320 Descending Toronto Center
07:39AM 43.5167 -79.6167 270° West 250 288 5,300 -2,040 Descending Toronto Center
07:40AM 43.5333 -79.7000 285° West 240 276 3,200 -1,200 Descending Toronto Center
07:41AM 43.5667 -79.7500 313° West 180 207 3,000 -420 Descending Toronto Center
07:42AM 43.6000 -79.7333 20° North 170 196 2,400 -600 Descending Toronto Center